sensor_id;sensor_type;location;lat;lon;timestamp;P1;durP1;ratioP1;P2;durP2;ratioP2
17372;SDS011;8803;48.116;11.590;2023-04-12T00:00:56;4.07;;;2.17;;
17372;SDS011;8803;48.116;11.590;2023-04-12T00:03:00;2.93;;;1.90;;
17372;SDS011;8803;48.116;11.590;2023-04-12T00:05:06;3.47;;;1.93;;
17372;SDS011;8803;48.116;11.590;2023-04-12T00:07:21;1.80;;;1.70;;
17372;SDS011;8803;48.116;11.590;2023-04-12T00:09:26;2.43;;;1.57;;
17372;SDS011;8803;48.116;11.590;2023-04-12T00:11:30;2.67;;;1.83;;
17372;SDS011;8803;48.116;11.590;2023-04-12T00:13:43;2.87;;;1.70;;
17372;SDS011;8803;48.116;11.590;2023-04-12T00:15:47;3.20;;;1.80;;
17372;SDS011;8803;48.116;11.590;2023-04-12T00:17:50;3.17;;;1.97;;
17372;SDS011;8803;48.116;11.590;2023-04-12T00:20:04;2.63;;;1.80;;
17372;SDS011;8803;48.116;11.590;2023-04-12T00:22:12;2.07;;;1.70;;
17372;SDS011;8803;48.116;11.590;2023-04-12T00:24:16;3.37;;;1.50;;
17372;SDS011;8803;48.116;11.590;2023-04-12T00:26:20;2.40;;;1.80;;
17372;SDS011;8803;48.116;11.590;2023-04-12T00:28:32;3.43;;;1.67;;
17372;SDS011;8803;48.116;11.590;2023-04-12T00:32:54;3.23;;;1.60;;
17372;SDS011;8803;48.116;11.590;2023-04-12T00:34:58;3.60;;;2.43;;
17372;SDS011;8803;48.116;11.590;2023-04-12T00:37:01;6.30;;;3.17;;
17372;SDS011;8803;48.116;11.590;2023-04-12T00:39:05;4.23;;;2.10;;
17372;SDS011;8803;48.116;11.590;2023-04-12T00:41:09;4.23;;;2.00;;
17372;SDS011;8803;48.116;11.590;2023-04-12T00:43:24;4.07;;;1.80;;
17372;SDS011;8803;48.116;11.590;2023-04-12T00:45:28;3.30;;;1.50;;
17372;SDS011;8803;48.116;11.590;2023-04-12T00:47:34;2.50;;;1.63;;
17372;SDS011;8803;48.116;11.590;2023-04-12T00:49:38;3.63;;;1.80;;
17372;SDS011;8803;48.116;11.590;2023-04-12T00:51:42;3.43;;;1.77;;
17372;SDS011;8803;48.116;11.590;2023-04-12T00:53:54;2.33;;;1.53;;
17372;SDS011;8803;48.116;11.590;2023-04-12T00:55:59;2.87;;;1.63;;
17372;SDS011;8803;48.116;11.590;2023-04-12T00:58:04;1.83;;;1.40;;
17372;SDS011;8803;48.116;11.590;2023-04-12T01:00:09;1.57;;;1.37;;
17372;SDS011;8803;48.116;11.590;2023-04-12T01:02:22;4.80;;;1.90;;
17372;SDS011;8803;48.116;11.590;2023-04-12T01:04:26;2.50;;;1.43;;
17372;SDS011;8803;48.116;11.590;2023-04-12T01:06:36;2.30;;;1.60;;
17372;SDS011;8803;48.116;11.590;2023-04-12T01:08:47;3.13;;;1.83;;
17372;SDS011;8803;48.116;11.590;2023-04-12T01:10:53;2.23;;;1.53;;
17372;SDS011;8803;48.116;11.590;2023-04-12T01:13:09;2.20;;;1.60;;
17372;SDS011;8803;48.116;11.590;2023-04-12T01:15:16;2.30;;;1.60;;
17372;SDS011;8803;48.116;11.590;2023-04-12T01:17:20;2.30;;;1.50;;
17372;SDS011;8803;48.116;11.590;2023-04-12T01:19:35;1.90;;;1.50;;
17372;SDS011;8803;48.116;11.590;2023-04-12T01:21:53;2.00;;;1.80;;
17372;SDS011;8803;48.116;11.590;2023-04-12T01:24:06;5.50;;;1.73;;
17372;SDS011;8803;48.116;11.590;2023-04-12T01:26:38;2.30;;;1.50;;
17372;SDS011;8803;48.116;11.590;2023-04-12T01:28:45;1.83;;;1.60;;
17372;SDS011;8803;48.116;11.590;2023-04-12T01:30:58;2.40;;;1.30;;
17372;SDS011;8803;48.116;11.590;2023-04-12T01:33:04;3.43;;;1.63;;
17372;SDS011;8803;48.116;11.590;2023-04-12T01:35:10;2.03;;;1.47;;
17372;SDS011;8803;48.116;11.590;2023-04-12T01:37:25;1.73;;;1.40;;
17372;SDS011;8803;48.116;11.590;2023-04-12T01:39:30;2.37;;;1.60;;
17372;SDS011;8803;48.116;11.590;2023-04-12T01:41:44;2.63;;;1.33;;
17372;SDS011;8803;48.116;11.590;2023-04-12T01:43:49;3.57;;;1.67;;
17372;SDS011;8803;48.116;11.590;2023-04-12T01:45:52;2.70;;;1.57;;
17372;SDS011;8803;48.116;11.590;2023-04-12T01:48:07;1.37;;;1.10;;
17372;SDS011;8803;48.116;11.590;2023-04-12T01:50:13;1.50;;;1.40;;
17372;SDS011;8803;48.116;11.590;2023-04-12T01:52:19;1.60;;;1.30;;
17372;SDS011;8803;48.116;11.590;2023-04-12T01:54:35;2.17;;;1.37;;
17372;SDS011;8803;48.116;11.590;2023-04-12T01:56:42;2.37;;;1.30;;
17372;SDS011;8803;48.116;11.590;2023-04-12T01:58:50;1.40;;;1.20;;
17372;SDS011;8803;48.116;11.590;2023-04-12T02:00:54;3.17;;;1.60;;
17372;SDS011;8803;48.116;11.590;2023-04-12T02:03:08;2.00;;;1.20;;
17372;SDS011;8803;48.116;11.590;2023-04-12T02:05:13;2.50;;;1.27;;
17372;SDS011;8803;48.116;11.590;2023-04-12T02:07:17;1.50;;;1.40;;
17372;SDS011;8803;48.116;11.590;2023-04-12T02:09:23;3.27;;;1.27;;
17372;SDS011;8803;48.116;11.590;2023-04-12T02:11:36;2.27;;;1.33;;
17372;SDS011;8803;48.116;11.590;2023-04-12T02:13:40;2.03;;;1.33;;
17372;SDS011;8803;48.116;11.590;2023-04-12T02:15:43;3.53;;;1.43;;
17372;SDS011;8803;48.116;11.590;2023-04-12T02:17:47;1.97;;;1.37;;
17372;SDS011;8803;48.116;11.590;2023-04-12T02:19:52;2.27;;;1.30;;
17372;SDS011;8803;48.116;11.590;2023-04-12T02:22:07;2.17;;;1.30;;
17372;SDS011;8803;48.116;11.590;2023-04-12T02:24:11;1.90;;;1.30;;
17372;SDS011;8803;48.116;11.590;2023-04-12T02:26:23;1.60;;;1.23;;
17372;SDS011;8803;48.116;11.590;2023-04-12T02:28:27;2.10;;;1.27;;
17372;SDS011;8803;48.116;11.590;2023-04-12T02:30:31;2.67;;;1.30;;
17372;SDS011;8803;48.116;11.590;2023-04-12T02:32:36;1.53;;;1.27;;
17372;SDS011;8803;48.116;11.590;2023-04-12T02:34:45;2.20;;;1.20;;
17372;SDS011;8803;48.116;11.590;2023-04-12T02:39:02;3.37;;;1.40;;
17372;SDS011;8803;48.116;11.590;2023-04-12T02:41:07;1.67;;;1.30;;
17372;SDS011;8803;48.116;11.590;2023-04-12T02:43:20;1.20;;;1.10;;
17372;SDS011;8803;48.116;11.590;2023-04-12T02:45:24;2.27;;;1.30;;
17372;SDS011;8803;48.116;11.590;2023-04-12T02:47:28;1.50;;;1.30;;
17372;SDS011;8803;48.116;11.590;2023-04-12T02:49:32;2.07;;;1.13;;
17372;SDS011;8803;48.116;11.590;2023-04-12T02:51:44;1.63;;;1.20;;
17372;SDS011;8803;48.116;11.590;2023-04-12T02:53:48;1.90;;;1.40;;
17372;SDS011;8803;48.116;11.590;2023-04-12T02:55:53;2.67;;;1.47;;
17372;SDS011;8803;48.116;11.590;2023-04-12T02:57:57;3.17;;;1.60;;
17372;SDS011;8803;48.116;11.590;2023-04-12T03:00:11;1.93;;;1.20;;
17372;SDS011;8803;48.116;11.590;2023-04-12T03:02:16;1.60;;;1.27;;
17372;SDS011;8803;48.116;11.590;2023-04-12T03:04:29;1.87;;;1.47;;
17372;SDS011;8803;48.116;11.590;2023-04-12T03:06:33;2.90;;;1.40;;
17372;SDS011;8803;48.116;11.590;2023-04-12T03:08:36;1.90;;;1.10;;
17372;SDS011;8803;48.116;11.590;2023-04-12T03:10:40;2.63;;;1.30;;
17372;SDS011;8803;48.116;11.590;2023-04-12T03:12:53;3.30;;;1.40;;
17372;SDS011;8803;48.116;11.590;2023-04-12T03:14:57;1.90;;;1.10;;
17372;SDS011;8803;48.116;11.590;2023-04-12T03:17:01;4.17;;;1.27;;
17372;SDS011;8803;48.116;11.590;2023-04-12T03:19:05;2.00;;;1.40;;
17372;SDS011;8803;48.116;11.590;2023-04-12T03:21:08;3.00;;;1.70;;
17372;SDS011;8803;48.116;11.590;2023-04-12T03:23:21;2.60;;;1.20;;
17372;SDS011;8803;48.116;11.590;2023-04-12T03:25:25;2.70;;;1.20;;
17372;SDS011;8803;48.116;11.590;2023-04-12T03:27:29;1.87;;;1.20;;
17372;SDS011;8803;48.116;11.590;2023-04-12T03:29:32;1.97;;;1.40;;
17372;SDS011;8803;48.116;11.590;2023-04-12T03:31:36;1.70;;;1.17;;
17372;SDS011;8803;48.116;11.590;2023-04-12T03:33:41;2.60;;;1.33;;
17372;SDS011;8803;48.116;11.590;2023-04-12T03:35:53;2.23;;;1.37;;
17372;SDS011;8803;48.116;11.590;2023-04-12T03:37:57;3.20;;;1.60;;
17372;SDS011;8803;48.116;11.590;2023-04-12T03:40:04;1.60;;;1.17;;
17372;SDS011;8803;48.116;11.590;2023-04-12T03:42:21;2.20;;;1.60;;
17372;SDS011;8803;48.116;11.590;2023-04-12T03:44:25;2.77;;;1.80;;
17372;SDS011;8803;48.116;11.590;2023-04-12T03:46:29;2.93;;;1.30;;
17372;SDS011;8803;48.116;11.590;2023-04-12T03:48:33;2.90;;;1.33;;
17372;SDS011;8803;48.116;11.590;2023-04-12T03:50:37;2.27;;;1.23;;
17372;SDS011;8803;48.116;11.590;2023-04-12T03:52:53;2.47;;;1.20;;
17372;SDS011;8803;48.116;11.590;2023-04-12T03:54:57;1.63;;;1.20;;
17372;SDS011;8803;48.116;11.590;2023-04-12T03:57:01;3.37;;;1.03;;
17372;SDS011;8803;48.116;11.590;2023-04-12T04:01:16;1.30;;;1.00;;
17372;SDS011;8803;48.116;11.590;2023-04-12T04:03:20;2.23;;;1.30;;
17372;SDS011;8803;48.116;11.590;2023-04-12T04:05:25;3.40;;;1.50;;
17372;SDS011;8803;48.116;11.590;2023-04-12T04:07:38;2.70;;;1.17;;
17372;SDS011;8803;48.116;11.590;2023-04-12T04:09:42;3.53;;;1.13;;
17372;SDS011;8803;48.116;11.590;2023-04-12T04:11:54;1.70;;;1.07;;
17372;SDS011;8803;48.116;11.590;2023-04-12T04:13:58;1.37;;;1.00;;
17372;SDS011;8803;48.116;11.590;2023-04-12T04:16:02;2.07;;;1.23;;
17372;SDS011;8803;48.116;11.590;2023-04-12T04:18:09;2.97;;;1.17;;
17372;SDS011;8803;48.116;11.590;2023-04-12T04:20:24;3.70;;;1.87;;
17372;SDS011;8803;48.116;11.590;2023-04-12T04:22:27;1.70;;;1.10;;
17372;SDS011;8803;48.116;11.590;2023-04-12T04:24:40;2.20;;;1.33;;
17372;SDS011;8803;48.116;11.590;2023-04-12T04:26:44;3.40;;;1.27;;
17372;SDS011;8803;48.116;11.590;2023-04-12T04:28:47;3.10;;;1.20;;
17372;SDS011;8803;48.116;11.590;2023-04-12T04:31:00;1.30;;;0.90;;
17372;SDS011;8803;48.116;11.590;2023-04-12T04:33:06;3.30;;;1.60;;
17372;SDS011;8803;48.116;11.590;2023-04-12T04:35:10;2.40;;;1.67;;
17372;SDS011;8803;48.116;11.590;2023-04-12T04:37:15;2.00;;;1.20;;
17372;SDS011;8803;48.116;11.590;2023-04-12T04:39:19;2.30;;;1.40;;
17372;SDS011;8803;48.116;11.590;2023-04-12T04:41:23;3.43;;;1.30;;
17372;SDS011;8803;48.116;11.590;2023-04-12T04:43:27;2.63;;;1.67;;
17372;SDS011;8803;48.116;11.590;2023-04-12T04:45:42;3.43;;;1.53;;
17372;SDS011;8803;48.116;11.590;2023-04-12T04:47:46;2.20;;;1.40;;
17372;SDS011;8803;48.116;11.590;2023-04-12T04:49:51;2.07;;;1.20;;
17372;SDS011;8803;48.116;11.590;2023-04-12T04:52:03;1.80;;;1.40;;
17372;SDS011;8803;48.116;11.590;2023-04-12T04:54:09;2.33;;;1.23;;
17372;SDS011;8803;48.116;11.590;2023-04-12T04:56:14;1.53;;;1.43;;
17372;SDS011;8803;48.116;11.590;2023-04-12T04:58:17;1.73;;;1.00;;
17372;SDS011;8803;48.116;11.590;2023-04-12T05:00:21;1.77;;;1.10;;
17372;SDS011;8803;48.116;11.590;2023-04-12T05:02:35;2.37;;;1.23;;
17372;SDS011;8803;48.116;11.590;2023-04-12T05:04:42;2.73;;;1.23;;
17372;SDS011;8803;48.116;11.590;2023-04-12T05:06:46;2.30;;;1.40;;
17372;SDS011;8803;48.116;11.590;2023-04-12T05:08:50;2.73;;;1.17;;
17372;SDS011;8803;48.116;11.590;2023-04-12T05:10:54;3.70;;;1.73;;
17372;SDS011;8803;48.116;11.590;2023-04-12T05:12:58;2.03;;;1.43;;
17372;SDS011;8803;48.116;11.590;2023-04-12T05:15:03;1.67;;;1.50;;
17372;SDS011;8803;48.116;11.590;2023-04-12T05:17:07;2.63;;;1.50;;
17372;SDS011;8803;48.116;11.590;2023-04-12T05:19:20;4.00;;;1.50;;
17372;SDS011;8803;48.116;11.590;2023-04-12T05:21:24;3.97;;;1.90;;
17372;SDS011;8803;48.116;11.590;2023-04-12T05:23:28;3.47;;;1.50;;
17372;SDS011;8803;48.116;11.590;2023-04-12T05:25:45;2.80;;;1.67;;
17372;SDS011;8803;48.116;11.590;2023-04-12T05:27:50;3.87;;;2.00;;
17372;SDS011;8803;48.116;11.590;2023-04-12T05:29:53;3.33;;;1.60;;
17372;SDS011;8803;48.116;11.590;2023-04-12T05:32:07;3.77;;;1.47;;
17372;SDS011;8803;48.116;11.590;2023-04-12T05:34:11;2.60;;;1.80;;
17372;SDS011;8803;48.116;11.590;2023-04-12T05:36:15;2.53;;;1.90;;
17372;SDS011;8803;48.116;11.590;2023-04-12T05:38:19;6.07;;;2.17;;
17372;SDS011;8803;48.116;11.590;2023-04-12T05:40:22;2.40;;;1.97;;
17372;SDS011;8803;48.116;11.590;2023-04-12T05:42:35;1.60;;;1.50;;
17372;SDS011;8803;48.116;11.590;2023-04-12T05:44:39;2.53;;;1.97;;
17372;SDS011;8803;48.116;11.590;2023-04-12T05:46:44;4.27;;;2.10;;
17372;SDS011;8803;48.116;11.590;2023-04-12T05:48:58;7.07;;;2.63;;
17372;SDS011;8803;48.116;11.590;2023-04-12T05:51:02;4.97;;;2.30;;
17372;SDS011;8803;48.116;11.590;2023-04-12T05:53:15;3.00;;;2.20;;
17372;SDS011;8803;48.116;11.590;2023-04-12T05:55:19;4.07;;;2.10;;
17372;SDS011;8803;48.116;11.590;2023-04-12T05:57:38;4.43;;;2.13;;
17372;SDS011;8803;48.116;11.590;2023-04-12T05:59:42;2.70;;;1.90;;
17372;SDS011;8803;48.116;11.590;2023-04-12T06:01:55;1.70;;;1.40;;
17372;SDS011;8803;48.116;11.590;2023-04-12T06:03:59;2.43;;;2.00;;
17372;SDS011;8803;48.116;11.590;2023-04-12T06:06:04;3.47;;;1.97;;
17372;SDS011;8803;48.116;11.590;2023-04-12T06:08:09;2.70;;;2.17;;
17372;SDS011;8803;48.116;11.590;2023-04-12T06:10:14;4.93;;;2.00;;
17372;SDS011;8803;48.116;11.590;2023-04-12T06:12:19;4.47;;;1.93;;
17372;SDS011;8803;48.116;11.590;2023-04-12T06:14:23;2.60;;;1.60;;
17372;SDS011;8803;48.116;11.590;2023-04-12T06:16:26;3.77;;;1.80;;
17372;SDS011;8803;48.116;11.590;2023-04-12T06:18:30;2.53;;;1.60;;
17372;SDS011;8803;48.116;11.590;2023-04-12T06:20:43;3.43;;;1.73;;
17372;SDS011;8803;48.116;11.590;2023-04-12T06:22:47;2.50;;;1.40;;
17372;SDS011;8803;48.116;11.590;2023-04-12T06:24:59;1.80;;;1.50;;
17372;SDS011;8803;48.116;11.590;2023-04-12T06:27:03;4.87;;;1.80;;
17372;SDS011;8803;48.116;11.590;2023-04-12T06:29:07;2.60;;;1.60;;
17372;SDS011;8803;48.116;11.590;2023-04-12T06:31:11;2.13;;;1.40;;
17372;SDS011;8803;48.116;11.590;2023-04-12T06:33:16;3.33;;;2.07;;
17372;SDS011;8803;48.116;11.590;2023-04-12T06:35:22;2.40;;;1.70;;
17372;SDS011;8803;48.116;11.590;2023-04-12T06:37:36;3.40;;;1.90;;
17372;SDS011;8803;48.116;11.590;2023-04-12T06:39:40;2.60;;;1.47;;
17372;SDS011;8803;48.116;11.590;2023-04-12T06:41:53;2.90;;;1.80;;
17372;SDS011;8803;48.116;11.590;2023-04-12T06:43:58;3.03;;;1.67;;
17372;SDS011;8803;48.116;11.590;2023-04-12T06:46:10;3.43;;;1.67;;
17372;SDS011;8803;48.116;11.590;2023-04-12T06:48:17;2.13;;;1.30;;
17372;SDS011;8803;48.116;11.590;2023-04-12T06:52:34;2.57;;;1.57;;
17372;SDS011;8803;48.116;11.590;2023-04-12T06:54:38;3.73;;;1.80;;
17372;SDS011;8803;48.116;11.590;2023-04-12T06:56:42;4.33;;;2.00;;
17372;SDS011;8803;48.116;11.590;2023-04-12T06:58:46;3.70;;;1.63;;
17372;SDS011;8803;48.116;11.590;2023-04-12T07:01:06;4.77;;;1.73;;
17372;SDS011;8803;48.116;11.590;2023-04-12T07:03:10;2.27;;;1.80;;
17372;SDS011;8803;48.116;11.590;2023-04-12T07:05:14;5.60;;;1.97;;
17372;SDS011;8803;48.116;11.590;2023-04-12T07:07:18;3.10;;;1.40;;
17372;SDS011;8803;48.116;11.590;2023-04-12T07:09:22;7.27;;;2.10;;
17372;SDS011;8803;48.116;11.590;2023-04-12T07:11:36;4.77;;;1.93;;
17372;SDS011;8803;48.116;11.590;2023-04-12T07:13:39;3.17;;;1.90;;
17372;SDS011;8803;48.116;11.590;2023-04-12T07:15:43;4.40;;;1.77;;
17372;SDS011;8803;48.116;11.590;2023-04-12T07:17:47;2.03;;;1.70;;
17372;SDS011;8803;48.116;11.590;2023-04-12T07:19:52;3.17;;;1.70;;
17372;SDS011;8803;48.116;11.590;2023-04-12T07:21:56;3.50;;;1.60;;
17372;SDS011;8803;48.116;11.590;2023-04-12T07:24:13;3.53;;;1.67;;
17372;SDS011;8803;48.116;11.590;2023-04-12T07:26:17;2.87;;;1.70;;
17372;SDS011;8803;48.116;11.590;2023-04-12T07:28:21;3.93;;;1.90;;
17372;SDS011;8803;48.116;11.590;2023-04-12T07:30:25;2.00;;;1.33;;
17372;SDS011;8803;48.116;11.590;2023-04-12T07:32:39;3.20;;;1.63;;
17372;SDS011;8803;48.116;11.590;2023-04-12T07:34:42;3.57;;;1.87;;
17372;SDS011;8803;48.116;11.590;2023-04-12T07:36:46;2.37;;;1.40;;
17372;SDS011;8803;48.116;11.590;2023-04-12T07:38:50;2.87;;;1.50;;
17372;SDS011;8803;48.116;11.590;2023-04-12T07:41:03;4.03;;;1.87;;
17372;SDS011;8803;48.116;11.590;2023-04-12T07:43:07;2.07;;;1.20;;
17372;SDS011;8803;48.116;11.590;2023-04-12T07:45:11;1.80;;;1.53;;
17372;SDS011;8803;48.116;11.590;2023-04-12T07:47:14;5.73;;;1.93;;
17372;SDS011;8803;48.116;11.590;2023-04-12T07:49:18;2.90;;;1.57;;
17372;SDS011;8803;48.116;11.590;2023-04-12T07:51:31;2.93;;;1.80;;
17372;SDS011;8803;48.116;11.590;2023-04-12T07:53:34;4.03;;;1.70;;
17372;SDS011;8803;48.116;11.590;2023-04-12T07:55:38;4.33;;;2.60;;
17372;SDS011;8803;48.116;11.590;2023-04-12T07:57:42;4.57;;;2.00;;
17372;SDS011;8803;48.116;11.590;2023-04-12T07:59:46;2.83;;;1.70;;
17372;SDS011;8803;48.116;11.590;2023-04-12T08:01:50;4.13;;;2.10;;
17372;SDS011;8803;48.116;11.590;2023-04-12T08:04:02;2.87;;;1.70;;
17372;SDS011;8803;48.116;11.590;2023-04-12T08:06:07;3.37;;;1.80;;
17372;SDS011;8803;48.116;11.590;2023-04-12T08:08:11;2.63;;;1.70;;
17372;SDS011;8803;48.116;11.590;2023-04-12T08:10:15;2.93;;;1.40;;
17372;SDS011;8803;48.116;11.590;2023-04-12T08:12:19;2.70;;;1.77;;
17372;SDS011;8803;48.116;11.590;2023-04-12T08:14:32;3.20;;;1.73;;
17372;SDS011;8803;48.116;11.590;2023-04-12T08:16:36;2.90;;;1.70;;
17372;SDS011;8803;48.116;11.590;2023-04-12T08:18:39;3.83;;;1.80;;
17372;SDS011;8803;48.116;11.590;2023-04-12T08:20:54;3.10;;;1.97;;
17372;SDS011;8803;48.116;11.590;2023-04-12T08:22:58;4.03;;;2.20;;
17372;SDS011;8803;48.116;11.590;2023-04-12T08:25:02;2.87;;;1.83;;
17372;SDS011;8803;48.116;11.590;2023-04-12T08:27:15;2.50;;;2.13;;
17372;SDS011;8803;48.116;11.590;2023-04-12T08:29:19;4.47;;;1.90;;
17372;SDS011;8803;48.116;11.590;2023-04-12T08:31:32;3.90;;;2.43;;
17372;SDS011;8803;48.116;11.590;2023-04-12T08:33:36;2.80;;;2.23;;
17372;SDS011;8803;48.116;11.590;2023-04-12T08:35:48;2.60;;;1.87;;
17372;SDS011;8803;48.116;11.590;2023-04-12T08:37:53;4.17;;;1.83;;
17372;SDS011;8803;48.116;11.590;2023-04-12T08:42:09;3.43;;;2.17;;
17372;SDS011;8803;48.116;11.590;2023-04-12T08:44:14;4.53;;;2.00;;
17372;SDS011;8803;48.116;11.590;2023-04-12T08:46:20;2.87;;;1.83;;
17372;SDS011;8803;48.116;11.590;2023-04-12T08:48:23;2.83;;;2.03;;
17372;SDS011;8803;48.116;11.590;2023-04-12T08:50:28;2.80;;;1.80;;
17372;SDS011;8803;48.116;11.590;2023-04-12T08:52:33;3.60;;;2.20;;
17372;SDS011;8803;48.116;11.590;2023-04-12T08:54:46;7.30;;;1.90;;
17372;SDS011;8803;48.116;11.590;2023-04-12T08:56:50;3.37;;;1.70;;
17372;SDS011;8803;48.116;11.590;2023-04-12T08:58:54;1.90;;;1.40;;
17372;SDS011;8803;48.116;11.590;2023-04-12T09:01:10;3.47;;;1.63;;
17372;SDS011;8803;48.116;11.590;2023-04-12T09:03:15;3.10;;;1.57;;
17372;SDS011;8803;48.116;11.590;2023-04-12T09:05:19;2.93;;;2.10;;
17372;SDS011;8803;48.116;11.590;2023-04-12T09:07:27;3.97;;;2.43;;
17372;SDS011;8803;48.116;11.590;2023-04-12T09:09:39;2.90;;;1.50;;
17372;SDS011;8803;48.116;11.590;2023-04-12T09:11:52;2.57;;;1.80;;
17372;SDS011;8803;48.116;11.590;2023-04-12T09:14:00;2.40;;;1.60;;
17372;SDS011;8803;48.116;11.590;2023-04-12T09:16:06;3.53;;;2.17;;
17372;SDS011;8803;48.116;11.590;2023-04-12T09:18:11;3.73;;;1.83;;
17372;SDS011;8803;48.116;11.590;2023-04-12T09:20:27;3.60;;;1.70;;
17372;SDS011;8803;48.116;11.590;2023-04-12T09:22:32;2.17;;;1.40;;
17372;SDS011;8803;48.116;11.590;2023-04-12T09:24:47;3.83;;;1.70;;
17372;SDS011;8803;48.116;11.590;2023-04-12T09:27:00;2.53;;;1.70;;
17372;SDS011;8803;48.116;11.590;2023-04-12T09:29:05;3.17;;;1.53;;
17372;SDS011;8803;48.116;11.590;2023-04-12T09:31:27;2.70;;;1.87;;
17372;SDS011;8803;48.116;11.590;2023-04-12T09:33:34;4.47;;;1.90;;
17372;SDS011;8803;48.116;11.590;2023-04-12T09:35:39;3.57;;;1.80;;
17372;SDS011;8803;48.116;11.590;2023-04-12T09:37:43;1.73;;;1.57;;
17372;SDS011;8803;48.116;11.590;2023-04-12T09:39:47;2.73;;;1.60;;
17372;SDS011;8803;48.116;11.590;2023-04-12T09:42:10;3.27;;;1.90;;
17372;SDS011;8803;48.116;11.590;2023-04-12T09:44:27;1.93;;;1.60;;
17372;SDS011;8803;48.116;11.590;2023-04-12T09:46:46;1.70;;;1.30;;
17372;SDS011;8803;48.116;11.590;2023-04-12T09:48:52;2.97;;;2.13;;
17372;SDS011;8803;48.116;11.590;2023-04-12T09:51:07;2.60;;;1.63;;
17372;SDS011;8803;48.116;11.590;2023-04-12T09:53:14;3.13;;;1.80;;
17372;SDS011;8803;48.116;11.590;2023-04-12T09:55:19;2.63;;;1.47;;
17372;SDS011;8803;48.116;11.590;2023-04-12T09:57:32;3.50;;;1.60;;
17372;SDS011;8803;48.116;11.590;2023-04-12T09:59:38;1.70;;;1.60;;
17372;SDS011;8803;48.116;11.590;2023-04-12T10:01:51;1.47;;;1.30;;
17372;SDS011;8803;48.116;11.590;2023-04-12T10:03:55;3.47;;;2.00;;
17372;SDS011;8803;48.116;11.590;2023-04-12T10:05:59;1.77;;;1.63;;
17372;SDS011;8803;48.116;11.590;2023-04-12T10:08:06;2.17;;;1.37;;
17372;SDS011;8803;48.116;11.590;2023-04-12T10:10:19;4.90;;;1.73;;
17372;SDS011;8803;48.116;11.590;2023-04-12T10:12:23;1.93;;;1.73;;
17372;SDS011;8803;48.116;11.590;2023-04-12T10:14:28;1.90;;;1.53;;
17372;SDS011;8803;48.116;11.590;2023-04-12T10:16:41;1.40;;;1.30;;
17372;SDS011;8803;48.116;11.590;2023-04-12T10:18:46;4.47;;;1.60;;
17372;SDS011;8803;48.116;11.590;2023-04-12T10:20:52;2.90;;;1.30;;
17372;SDS011;8803;48.116;11.590;2023-04-12T10:23:06;1.60;;;1.30;;
17372;SDS011;8803;48.116;11.590;2023-04-12T10:25:12;3.30;;;1.60;;
17372;SDS011;8803;48.116;11.590;2023-04-12T10:27:23;2.03;;;1.37;;
17372;SDS011;8803;48.116;11.590;2023-04-12T10:29:28;2.47;;;1.20;;
17372;SDS011;8803;48.116;11.590;2023-04-12T10:31:44;1.47;;;1.20;;
17372;SDS011;8803;48.116;11.590;2023-04-12T10:33:48;2.10;;;1.20;;
17372;SDS011;8803;48.116;11.590;2023-04-12T10:35:55;3.33;;;1.83;;
17372;SDS011;8803;48.116;11.590;2023-04-12T10:38:10;1.13;;;0.97;;
17372;SDS011;8803;48.116;11.590;2023-04-12T10:40:16;1.83;;;1.30;;
17372;SDS011;8803;48.116;11.590;2023-04-12T10:42:21;2.23;;;1.50;;
17372;SDS011;8803;48.116;11.590;2023-04-12T10:44:27;2.50;;;1.27;;
17372;SDS011;8803;48.116;11.590;2023-04-12T10:48:58;3.23;;;1.40;;
17372;SDS011;8803;48.116;11.590;2023-04-12T10:51:12;2.57;;;1.40;;
17372;SDS011;8803;48.116;11.590;2023-04-12T10:53:29;1.80;;;1.40;;
17372;SDS011;8803;48.116;11.590;2023-04-12T10:55:32;1.27;;;1.00;;
17372;SDS011;8803;48.116;11.590;2023-04-12T10:57:42;2.10;;;1.30;;
17372;SDS011;8803;48.116;11.590;2023-04-12T10:59:51;1.13;;;1.03;;
17372;SDS011;8803;48.116;11.590;2023-04-12T11:02:10;1.40;;;1.20;;
17372;SDS011;8803;48.116;11.590;2023-04-12T11:04:23;2.07;;;1.10;;
17372;SDS011;8803;48.116;11.590;2023-04-12T11:06:39;1.83;;;1.20;;
17372;SDS011;8803;48.116;11.590;2023-04-12T11:08:50;1.63;;;1.17;;
17372;SDS011;8803;48.116;11.590;2023-04-12T11:11:01;1.00;;;0.83;;
17372;SDS011;8803;48.116;11.590;2023-04-12T11:13:15;1.77;;;1.03;;
17372;SDS011;8803;48.116;11.590;2023-04-12T11:15:24;1.57;;;1.27;;
17372;SDS011;8803;48.116;11.590;2023-04-12T11:17:36;3.17;;;1.10;;
17372;SDS011;8803;48.116;11.590;2023-04-12T11:19:41;2.77;;;1.20;;
17372;SDS011;8803;48.116;11.590;2023-04-12T11:21:54;1.43;;;1.20;;
17372;SDS011;8803;48.116;11.590;2023-04-12T11:23:57;2.63;;;1.40;;
17372;SDS011;8803;48.116;11.590;2023-04-12T11:26:02;2.20;;;1.37;;
17372;SDS011;8803;48.116;11.590;2023-04-12T11:28:06;1.30;;;1.20;;
17372;SDS011;8803;48.116;11.590;2023-04-12T11:30:11;2.13;;;1.80;;
17372;SDS011;8803;48.116;11.590;2023-04-12T11:32:16;2.00;;;1.70;;
17372;SDS011;8803;48.116;11.590;2023-04-12T11:34:20;2.03;;;1.30;;
17372;SDS011;8803;48.116;11.590;2023-04-12T11:36:25;2.50;;;1.60;;
17372;SDS011;8803;48.116;11.590;2023-04-12T11:38:29;2.33;;;1.37;;
17372;SDS011;8803;48.116;11.590;2023-04-12T11:40:33;1.97;;;1.40;;
17372;SDS011;8803;48.116;11.590;2023-04-12T11:42:37;3.53;;;1.80;;
17372;SDS011;8803;48.116;11.590;2023-04-12T11:44:42;2.50;;;1.73;;
17372;SDS011;8803;48.116;11.590;2023-04-12T11:46:55;2.27;;;1.60;;
17372;SDS011;8803;48.116;11.590;2023-04-12T11:48:59;1.90;;;1.40;;
17372;SDS011;8803;48.116;11.590;2023-04-12T11:51:18;2.80;;;1.83;;
17372;SDS011;8803;48.116;11.590;2023-04-12T11:53:31;2.00;;;1.50;;
17372;SDS011;8803;48.116;11.590;2023-04-12T11:55:35;1.70;;;1.33;;
17372;SDS011;8803;48.116;11.590;2023-04-12T11:57:38;1.80;;;1.30;;
17372;SDS011;8803;48.116;11.590;2023-04-12T12:01:54;2.03;;;1.63;;
17372;SDS011;8803;48.116;11.590;2023-04-12T12:03:58;1.67;;;1.27;;
17372;SDS011;8803;48.116;11.590;2023-04-12T12:06:10;1.43;;;1.10;;
17372;SDS011;8803;48.116;11.590;2023-04-12T12:08:15;1.30;;;1.20;;
17372;SDS011;8803;48.116;11.590;2023-04-12T12:10:20;1.93;;;1.20;;
17372;SDS011;8803;48.116;11.590;2023-04-12T12:12:34;1.83;;;1.50;;
17372;SDS011;8803;48.116;11.590;2023-04-12T12:14:38;2.27;;;1.40;;
17372;SDS011;8803;48.116;11.590;2023-04-12T12:16:43;1.60;;;1.40;;
17372;SDS011;8803;48.116;11.590;2023-04-12T12:18:54;2.60;;;1.53;;
17372;SDS011;8803;48.116;11.590;2023-04-12T12:20:59;1.30;;;1.20;;
17372;SDS011;8803;48.116;11.590;2023-04-12T12:23:11;1.93;;;1.60;;
17372;SDS011;8803;48.116;11.590;2023-04-12T12:25:28;1.60;;;1.20;;
17372;SDS011;8803;48.116;11.590;2023-04-12T12:27:42;1.90;;;1.23;;
17372;SDS011;8803;48.116;11.590;2023-04-12T12:29:50;2.43;;;1.33;;
17372;SDS011;8803;48.116;11.590;2023-04-12T12:32:09;2.33;;;1.60;;
17372;SDS011;8803;48.116;11.590;2023-04-12T12:34:13;2.10;;;1.40;;
17372;SDS011;8803;48.116;11.590;2023-04-12T12:36:30;3.67;;;1.30;;
17372;SDS011;8803;48.116;11.590;2023-04-12T12:38:35;1.50;;;1.17;;
17372;SDS011;8803;48.116;11.590;2023-04-12T12:40:48;1.47;;;1.20;;
17372;SDS011;8803;48.116;11.590;2023-04-12T12:42:53;1.70;;;1.20;;
17372;SDS011;8803;48.116;11.590;2023-04-12T12:45:06;2.23;;;1.20;;
17372;SDS011;8803;48.116;11.590;2023-04-12T12:47:11;2.90;;;1.30;;
17372;SDS011;8803;48.116;11.590;2023-04-12T12:49:15;2.37;;;1.70;;
17372;SDS011;8803;48.116;11.590;2023-04-12T12:51:19;1.40;;;1.13;;
17372;SDS011;8803;48.116;11.590;2023-04-12T12:53:32;1.80;;;1.27;;
17372;SDS011;8803;48.116;11.590;2023-04-12T12:55:36;2.17;;;1.30;;
17372;SDS011;8803;48.116;11.590;2023-04-12T12:57:41;3.00;;;1.60;;
17372;SDS011;8803;48.116;11.590;2023-04-12T12:59:45;1.87;;;1.23;;
17372;SDS011;8803;48.116;11.590;2023-04-12T13:01:58;2.80;;;1.20;;
17372;SDS011;8803;48.116;11.590;2023-04-12T13:04:01;1.80;;;1.13;;